createdAt,value
2019-02-27T00:02:00.214Z,17.65
2019-02-27T00:04:34.844Z,16.95
2019-02-27T00:07:04.911Z,16.62
2019-02-27T00:09:36.341Z,14.87
2019-02-27T00:12:08.070Z,16.62
2019-02-27T00:14:39.607Z,16.95
2019-02-27T00:17:11.946Z,17.00
2019-02-27T00:19:43.286Z,16.65
2019-02-27T00:22:14.940Z,16.97
2019-02-27T00:24:47.555Z,16.70
2019-02-27T00:27:19.205Z,18.25
2019-02-27T00:29:50.773Z,18.35
2019-02-27T00:32:22.347Z,17.17
2019-02-27T00:34:53.739Z,17.90
2019-02-27T00:37:25.239Z,18.00
2019-02-27T00:39:56.930Z,17.90
2019-02-27T00:42:33.489Z,16.50
2019-02-27T00:45:06.828Z,17.05
2019-02-27T00:47:36.511Z,16.48
2019-02-27T00:50:08.072Z,16.23
2019-02-27T00:52:39.416Z,15.25
2019-02-27T00:55:10.898Z,15.85
2019-02-27T00:57:42.267Z,15.08
2019-02-27T01:00:16.198Z,14.30
2019-02-27T01:02:52.760Z,14.83
2019-02-27T01:05:21.863Z,15.03
2019-02-27T01:07:54.198Z,14.30
2019-02-27T01:10:26.302Z,14.23
2019-02-27T01:12:58.769Z,13.43
2019-02-27T01:15:30.381Z,13.62
2019-02-27T01:18:01.601Z,13.38
2019-02-27T01:20:33.309Z,14.55
2019-02-27T01:23:04.672Z,13.65
2019-02-27T01:25:36.228Z,14.05
2019-02-27T01:28:10.837Z,13.55
2019-02-27T01:30:41.650Z,12.78
2019-02-27T01:33:12.967Z,13.50
2019-02-27T01:35:44.756Z,12.40
2019-02-27T01:38:16.044Z,13.93
2019-02-27T01:40:49.004Z,12.73
2019-02-27T01:43:20.461Z,12.28
2019-02-27T01:45:54.252Z,11.18
2019-02-27T01:48:25.111Z,10.60
2019-02-27T01:50:56.563Z,10.70
2019-02-27T01:53:28.027Z,11.18
2019-02-27T01:55:59.399Z,10.88
2019-02-27T01:58:30.913Z,10.68
2019-02-27T02:01:02.438Z,10.80
2019-02-27T02:03:34.231Z,9.85
2019-02-27T02:06:06.247Z,9.95
2019-02-27T02:08:37.609Z,10.00
2019-02-27T02:11:09.265Z,10.20
2019-02-27T02:14:21.190Z,9.43
2019-02-27T02:17:29.220Z,8.90
2019-02-27T02:20:35.792Z,8.78
2019-02-27T02:23:52.006Z,8.95
2019-02-27T02:27:09.222Z,8.33
2019-02-27T02:30:14.728Z,8.50
2019-02-27T02:33:47.722Z,8.75
2019-02-27T02:37:08.458Z,8.28
2019-02-27T02:40:18.823Z,8.55
2019-02-27T02:43:41.475Z,8.30
2019-02-27T02:46:19.701Z,8.43
2019-02-27T02:49:43.993Z,8.40
2019-02-27T02:52:32.531Z,9.15
2019-02-27T02:55:20.578Z,10.58
2019-02-27T02:58:20.909Z,10.32
2019-02-27T03:01:05.064Z,9.43
2019-02-27T03:03:47.690Z,9.38
2019-02-27T03:06:38.689Z,12.43
2019-02-27T03:10:07.148Z,11.18
2019-02-27T03:13:25.981Z,11.15
2019-02-27T03:16:29.016Z,11.43
2019-02-27T03:19:34.282Z,12.55
2019-02-27T03:22:30.728Z,15.55
2019-02-27T03:25:40.126Z,11.65
2019-02-27T03:28:55.467Z,11.53
2019-02-27T03:31:59.879Z,13.72
2019-02-27T03:35:11.290Z,13.85
2019-02-27T03:38:29.636Z,11.80
2019-02-27T03:41:44.394Z,13.55
2019-02-27T03:44:42.984Z,13.32
2019-02-27T03:47:58.314Z,14.58
2019-02-27T03:51:03.600Z,13.35
2019-02-27T03:54:24.866Z,14.70
2019-02-27T03:57:05.265Z,12.28
2019-02-27T04:00:17.831Z,12.73
2019-02-27T04:03:17.035Z,12.90
2019-02-27T04:06:25.476Z,16.25
2019-02-27T04:08:58.053Z,13.80
2019-02-27T04:11:29.951Z,14.53
2019-02-27T04:14:04.840Z,14.33
2019-02-27T04:16:37.878Z,13.60
2019-02-27T04:19:08.069Z,13.35
2019-02-27T04:21:39.677Z,13.75
2019-02-27T04:24:11.316Z,13.15
2019-02-27T04:26:43.095Z,12.35
2019-02-27T04:29:14.636Z,12.03
2019-02-27T04:31:46.272Z,12.43
2019-02-27T04:34:17.523Z,11.73
2019-02-27T04:36:48.986Z,12.28
2019-02-27T04:39:20.257Z,12.98
2019-02-27T04:41:51.999Z,12.90
2019-02-27T04:44:24.214Z,13.40
2019-02-27T04:46:55.614Z,12.58
2019-02-27T04:49:26.971Z,11.65
2019-02-27T04:51:58.548Z,11.60
2019-02-27T04:54:29.890Z,10.93
2019-02-27T04:57:01.152Z,11.48
2019-02-27T04:59:32.714Z,11.90
2019-02-27T05:02:04.140Z,11.83
2019-02-27T05:04:35.884Z,12.68
2019-02-27T05:07:07.244Z,12.35
2019-02-27T05:09:38.757Z,13.18
2019-02-27T05:12:10.290Z,12.28
2019-02-27T05:14:41.788Z,11.93
2019-02-27T05:17:13.253Z,11.85
2019-02-27T05:19:44.535Z,12.53
2019-02-27T05:22:16.030Z,13.65
2019-02-27T05:24:47.592Z,16.10
2019-02-27T05:27:19.342Z,15.20
2019-02-27T05:29:50.979Z,17.40
2019-02-27T05:32:22.256Z,15.53
2019-02-27T05:34:53.892Z,15.93
2019-02-27T05:37:25.198Z,12.30
2019-02-27T05:39:56.445Z,12.58
2019-02-27T05:42:27.807Z,11.43
2019-02-27T05:44:59.025Z,11.70
2019-02-27T05:47:30.293Z,11.83
2019-02-27T05:50:01.863Z,14.90
2019-02-27T05:52:33.384Z,13.53
2019-02-27T05:55:06.376Z,12.37
2019-02-27T05:57:38.161Z,13.95
2019-02-27T06:00:13.058Z,12.03
2019-02-27T06:02:45.582Z,12.73
2019-02-27T06:05:17.268Z,11.97
2019-02-27T06:07:48.693Z,10.72
2019-02-27T06:10:21.149Z,10.93
2019-02-27T06:12:53.751Z,10.75
2019-02-27T06:15:26.057Z,12.45
2019-02-27T06:17:58.139Z,12.85
2019-02-27T06:20:29.595Z,10.85
2019-02-27T06:23:04.161Z,11.08
2019-02-27T06:25:34.360Z,10.13
2019-02-27T06:28:05.597Z,10.18
2019-02-27T06:30:37.069Z,10.45
2019-02-27T06:33:11.599Z,10.03
2019-02-27T06:35:41.600Z,10.32
2019-02-27T06:38:13.222Z,10.70
2019-02-27T06:40:44.473Z,11.53
2019-02-27T06:43:15.919Z,11.40
2019-02-27T06:45:47.533Z,12.07
2019-02-27T06:48:19.204Z,11.55
2019-02-27T06:50:50.747Z,12.63
2019-02-27T06:53:22.211Z,11.88
2019-02-27T06:55:53.793Z,12.40
2019-02-27T06:58:25.132Z,11.90
2019-02-27T07:00:56.821Z,12.20
2019-02-27T07:03:29.439Z,11.33
2019-02-27T07:06:02.026Z,11.83
2019-02-27T07:08:37.906Z,12.35
2019-02-27T07:11:10.879Z,11.83
2019-02-27T07:13:40.112Z,12.10
2019-02-27T07:16:13.397Z,12.00
2019-02-27T07:18:44.955Z,13.35
2019-02-27T07:21:16.268Z,13.60
2019-02-27T07:23:47.892Z,13.95
2019-02-27T07:26:19.294Z,13.95
2019-02-27T07:28:51.919Z,13.53
2019-02-27T07:31:23.742Z,12.45
2019-02-27T07:33:55.058Z,13.30
2019-02-27T07:36:26.467Z,12.47
2019-02-27T07:38:58.900Z,12.65
2019-02-27T07:41:31.438Z,12.13
2019-02-27T07:44:02.799Z,12.15
2019-02-27T07:46:35.569Z,13.13
2019-02-27T07:49:07.477Z,11.48
2019-02-27T07:51:39.100Z,12.93
2019-02-27T07:54:10.463Z,12.95
2019-02-27T07:56:41.865Z,11.88
2019-02-27T07:59:13.326Z,12.07
2019-02-27T08:01:44.804Z,12.37
2019-02-27T08:04:19.053Z,12.53
2019-02-27T08:06:49.205Z,12.43
2019-02-27T08:09:20.486Z,12.18
2019-02-27T08:11:51.798Z,11.85
2019-02-27T08:14:23.161Z,11.40
2019-02-27T08:16:57.146Z,12.25
2019-02-27T08:19:27.966Z,13.18
2019-02-27T08:21:59.379Z,11.85
2019-02-27T08:24:30.754Z,11.28
2019-02-27T08:27:02.012Z,13.08
2019-02-27T08:29:33.277Z,12.93
2019-02-27T08:32:05.615Z,12.60
2019-02-27T08:34:36.842Z,12.85
2019-02-27T08:37:08.117Z,12.18
2019-02-27T08:39:39.702Z,12.63
2019-02-27T08:42:11.364Z,11.68
2019-02-27T08:44:45.921Z,11.60
2019-02-27T08:47:16.284Z,12.50
2019-02-27T08:49:47.973Z,14.73
2019-02-27T08:52:19.518Z,12.00
2019-02-27T08:54:50.824Z,13.35
2019-02-27T08:57:22.261Z,12.20
2019-02-27T08:59:53.944Z,11.63
2019-02-27T09:02:29.198Z,12.00
2019-02-27T09:04:58.562Z,11.73
2019-02-27T09:07:29.917Z,11.18
2019-02-27T09:10:01.511Z,12.18
2019-02-27T09:12:33.260Z,11.33
2019-02-27T09:15:04.849Z,10.50
2019-02-27T09:17:36.541Z,12.50
2019-02-27T09:20:08.936Z,11.75
2019-02-27T09:22:40.312Z,12.43
2019-02-27T09:25:11.770Z,12.63
2019-02-27T09:27:43.210Z,12.47
2019-02-27T09:30:15.729Z,12.60
2019-02-27T09:32:47.449Z,12.18
2019-02-27T09:35:19.456Z,13.38
2019-02-27T09:37:52.063Z,11.83
2019-02-27T09:40:23.816Z,12.30
2019-02-27T09:42:55.535Z,11.43
2019-02-27T09:45:31.198Z,12.47
2019-02-27T09:48:03.012Z,12.90
2019-02-27T09:50:35.943Z,12.05
2019-02-27T09:53:07.699Z,11.57
2019-02-27T09:55:39.539Z,11.08
2019-02-27T09:58:11.692Z,12.00
2019-02-27T10:00:45.321Z,11.15
2019-02-27T10:03:20.503Z,10.78
2019-02-27T10:05:50.501Z,10.40
2019-02-27T10:08:21.988Z,11.43
2019-02-27T10:10:53.439Z,12.15
2019-02-27T10:13:25.087Z,10.63
2019-02-27T10:16:00.397Z,10.45
2019-02-27T10:18:30.248Z,10.30
2019-02-27T10:21:01.825Z,10.75
2019-02-27T10:23:33.457Z,10.43
2019-02-27T10:26:05.307Z,9.93
2019-02-27T10:28:39.648Z,9.73
2019-02-27T10:31:12.605Z,10.82
2019-02-27T10:33:43.817Z,11.63
2019-02-27T10:36:16.280Z,11.15
2019-02-27T10:38:47.999Z,10.30
2019-02-27T10:41:19.649Z,11.00
2019-02-27T10:43:51.092Z,9.93
2019-02-27T10:46:23.675Z,10.53
2019-02-27T10:48:55.592Z,10.95
2019-02-27T10:51:27.414Z,10.72
2019-02-27T10:54:02.333Z,11.70
2019-02-27T10:56:32.250Z,11.05
2019-02-27T10:59:04.001Z,10.63
2019-02-27T11:01:36.384Z,11.00
2019-02-27T11:04:09.123Z,10.40
2019-02-27T11:06:40.718Z,11.10
2019-02-27T11:09:25.882Z,11.60
2019-02-27T11:11:57.316Z,10.58
2019-02-27T11:14:31.713Z,10.25
2019-02-27T11:17:02.687Z,9.88
2019-02-27T11:19:35.119Z,10.98
2019-02-27T11:22:06.636Z,9.90
2019-02-27T11:24:38.323Z,9.93
2019-02-27T11:27:09.957Z,10.00
2019-02-27T11:29:41.551Z,11.48
2019-02-27T11:32:13.239Z,10.72
2019-02-27T11:34:45.574Z,12.33
2019-02-27T11:37:18.035Z,10.80
2019-02-27T11:39:49.599Z,10.55
2019-02-27T11:42:21.017Z,10.32
2019-02-27T11:44:52.528Z,11.10
2019-02-27T11:47:25.474Z,9.58
2019-02-27T11:49:57.128Z,11.05
2019-02-27T11:52:28.896Z,10.68
2019-02-27T11:55:01.805Z,10.93
2019-02-27T11:57:33.221Z,10.98
2019-02-27T12:00:04.893Z,11.57
2019-02-27T12:02:38.262Z,11.45
2019-02-27T12:05:10.706Z,11.90
2019-02-27T12:07:42.219Z,12.45
2019-02-27T12:10:16.592Z,11.60
2019-02-27T12:12:48.028Z,10.40
2019-02-27T12:15:20.772Z,11.60
2019-02-27T12:17:52.426Z,10.88
2019-02-27T12:20:25.002Z,11.12
2019-02-27T12:22:56.831Z,11.95
2019-02-27T12:25:30.130Z,11.03
2019-02-27T12:28:02.087Z,11.70
2019-02-27T12:30:37.201Z,11.33
2019-02-27T12:33:07.763Z,10.72
2019-02-27T12:35:44.193Z,11.00
2019-02-27T12:38:12.516Z,12.35
2019-02-27T12:40:43.983Z,11.28
2019-02-27T12:43:18.371Z,11.85
2019-02-27T12:45:48.850Z,12.55
2019-02-27T12:48:20.657Z,11.68
2019-02-27T12:50:52.445Z,12.00
2019-02-27T12:53:23.970Z,13.18
2019-02-27T12:55:55.588Z,14.05
2019-02-27T12:58:27.289Z,13.03
2019-02-27T13:00:58.942Z,12.95
2019-02-27T13:03:30.294Z,11.88
2019-02-27T13:06:01.770Z,12.20
2019-02-27T13:08:33.173Z,12.47
2019-02-27T13:11:05.230Z,12.60
2019-02-27T13:13:37.746Z,13.48
2019-02-27T13:16:14.239Z,12.85
2019-02-27T13:18:44.004Z,12.80
2019-02-27T13:21:20.106Z,12.88
2019-02-27T13:23:48.917Z,12.28
2019-02-27T13:26:20.343Z,13.08
2019-02-27T13:28:52.075Z,13.10
2019-02-27T13:31:23.614Z,12.85
2019-02-27T13:33:55.162Z,13.15
2019-02-27T13:36:26.767Z,14.50
2019-02-27T13:38:59.394Z,14.78
2019-02-27T13:41:30.813Z,14.73
2019-02-27T13:44:02.522Z,14.25
2019-02-27T13:46:34.312Z,14.33
2019-02-27T13:49:05.835Z,14.25
2019-02-27T13:51:40.175Z,17.05
2019-02-27T13:54:10.874Z,15.83
2019-02-27T13:56:42.446Z,15.45
2019-02-27T13:59:13.884Z,15.20
2019-02-27T14:01:45.404Z,14.33
2019-02-27T14:04:21.727Z,13.22
2019-02-27T14:06:50.215Z,13.72
2019-02-27T14:09:21.653Z,16.15
2019-02-27T14:11:58.442Z,15.55
2019-02-27T14:14:28.055Z,14.87
2019-02-27T14:16:59.383Z,16.45
2019-02-27T14:19:31.174Z,16.25
2019-02-27T14:22:07.212Z,14.80
2019-02-27T14:24:38.266Z,15.58
2019-02-27T14:27:12.021Z,14.18
2019-02-27T14:29:42.812Z,15.60
2019-02-27T14:32:15.116Z,14.63
2019-02-27T14:34:46.682Z,13.30
2019-02-27T14:37:18.054Z,9.43
2019-02-27T14:39:49.994Z,9.75
2019-02-27T14:42:21.618Z,9.15
2019-02-27T14:44:53.306Z,9.60
2019-02-27T14:47:25.048Z,9.20
2019-02-27T14:49:59.330Z,12.05
2019-02-27T14:52:29.476Z,9.58
2019-02-27T14:55:03.531Z,9.93
2019-02-27T14:57:34.341Z,10.20
2019-02-27T15:00:08.821Z,10.75
2019-02-27T15:02:40.442Z,11.00
2019-02-27T15:05:12.308Z,10.18
2019-02-27T15:07:43.929Z,10.85
2019-02-27T15:10:16.096Z,12.25
2019-02-27T15:12:47.700Z,12.13
2019-02-27T15:15:24.117Z,12.93
2019-02-27T15:17:55.846Z,16.25
2019-02-27T15:20:28.194Z,12.82
2019-02-27T15:22:59.995Z,12.85
2019-02-27T15:25:31.271Z,14.75
2019-02-27T15:28:02.910Z,27.67
2019-02-27T15:30:34.962Z,12.98
2019-02-27T15:33:06.739Z,15.80
2019-02-27T15:35:38.410Z,15.30
2019-02-27T15:38:11.748Z,14.80
2019-02-27T15:40:43.396Z,14.25
2019-02-27T15:43:17.301Z,14.03
2019-02-27T15:45:49.115Z,19.35
2019-02-27T15:48:20.467Z,12.05
2019-02-27T15:50:56.569Z,12.00
2019-02-27T15:53:25.640Z,11.30
2019-02-27T15:55:57.207Z,12.18
2019-02-27T15:58:28.896Z,12.78
2019-02-27T16:01:00.560Z,12.18
2019-02-27T16:03:32.356Z,13.20
2019-02-27T16:06:05.682Z,13.32
2019-02-27T16:08:37.209Z,13.28
2019-02-27T16:11:08.863Z,28.35
2019-02-27T16:13:40.591Z,28.27
2019-02-27T16:16:12.338Z,27.50
2019-02-27T16:18:43.913Z,30.40
2019-02-27T16:21:15.451Z,32.60
2019-02-27T16:23:47.142Z,30.77
2019-02-27T16:26:18.437Z,26.73
2019-02-27T16:28:49.842Z,26.97
2019-02-27T16:31:21.201Z,26.87
2019-02-27T16:33:55.615Z,25.35
2019-02-27T16:36:25.383Z,22.55
2019-02-27T16:38:56.815Z,23.92
2019-02-27T16:41:29.358Z,22.50
2019-02-27T16:44:01.197Z,22.73
2019-02-27T16:46:32.462Z,20.85
2019-02-27T16:49:03.937Z,20.27
2019-02-27T16:51:35.321Z,21.55
2019-02-27T16:54:06.918Z,20.50
2019-02-27T16:56:38.466Z,21.23
2019-02-27T16:59:12.121Z,22.90
2019-02-27T17:01:43.178Z,20.90
2019-02-27T17:04:14.662Z,22.55
2019-02-27T17:06:49.221Z,22.58
2019-02-27T17:09:19.561Z,20.68
2019-02-27T17:11:51.170Z,21.37
2019-02-27T17:14:24.548Z,21.37
2019-02-27T17:16:55.433Z,22.10
2019-02-27T17:19:26.775Z,23.18
2019-02-27T17:21:58.805Z,23.40
2019-02-27T17:24:30.735Z,24.43
2019-02-27T17:27:01.931Z,26.23
2019-02-27T17:29:33.189Z,27.50
2019-02-27T17:32:04.648Z,28.57
2019-02-27T17:34:36.130Z,27.98
2019-02-27T17:37:07.638Z,23.12
2019-02-27T17:39:38.967Z,24.47
2019-02-27T17:42:10.405Z,22.85
2019-02-27T17:44:41.921Z,24.85
2019-02-27T17:47:13.470Z,22.40
2019-02-27T17:49:44.726Z,22.45
2019-02-27T17:52:15.973Z,20.50
2019-02-27T17:54:47.477Z,20.57
2019-02-27T17:57:24.170Z,19.77
2019-02-27T17:59:52.138Z,22.67
2019-02-27T18:02:23.910Z,21.85
2019-02-27T18:04:58.339Z,21.15
2019-02-27T18:07:34.389Z,21.20
2019-02-27T18:10:04.186Z,21.77
2019-02-27T18:12:35.901Z,23.35
2019-02-27T18:15:07.964Z,21.68
2019-02-27T18:17:39.564Z,21.85
2019-02-27T18:20:11.360Z,20.52
2019-02-27T18:22:45.872Z,19.98
2019-02-27T18:25:18.014Z,21.10
2019-02-27T18:27:50.124Z,20.08
2019-02-27T18:30:22.093Z,17.20
2019-02-27T18:32:53.733Z,17.95
2019-02-27T18:35:28.765Z,15.70
2019-02-27T18:37:58.636Z,16.77
2019-02-27T18:40:30.271Z,17.57
2019-02-27T18:43:01.778Z,18.17
2019-02-27T18:45:33.262Z,17.32
2019-02-27T18:48:07.332Z,18.45
2019-02-27T18:50:38.024Z,17.48
2019-02-27T18:53:12.925Z,18.55
2019-02-27T18:55:44.062Z,17.45
2019-02-27T18:58:18.239Z,18.80
2019-02-27T19:00:48.945Z,18.25
2019-02-27T19:03:25.435Z,17.70
2019-02-27T19:05:53.762Z,16.95
2019-02-27T19:08:28.018Z,20.88
2019-02-27T19:10:58.538Z,21.48
2019-02-27T19:13:31.768Z,21.25
2019-02-27T19:16:03.213Z,23.20
2019-02-27T19:18:34.891Z,21.93
2019-02-27T19:21:06.569Z,22.35
2019-02-27T19:23:38.319Z,22.35
2019-02-27T19:26:10.052Z,24.50
2019-02-27T19:28:41.777Z,24.77
2019-02-27T19:31:16.410Z,23.35
2019-02-27T19:33:46.806Z,24.30
2019-02-27T19:36:19.424Z,22.13
2019-02-27T19:38:51.524Z,21.95
2019-02-27T19:41:23.408Z,24.63
2019-02-27T19:43:55.970Z,24.35
2019-02-27T19:46:27.688Z,22.10
2019-02-27T19:49:00.786Z,18.82
2019-02-27T19:51:32.601Z,17.77
2019-02-27T19:54:03.925Z,16.32
2019-02-27T19:56:36.260Z,15.70
2019-02-27T19:59:09.325Z,15.38
2019-02-27T20:01:46.265Z,15.10
2019-02-27T20:04:13.927Z,15.48
2019-02-27T20:06:45.539Z,16.73
2019-02-27T20:09:20.130Z,16.97
2019-02-27T20:11:50.036Z,15.83
2019-02-27T20:14:21.540Z,16.30
2019-02-27T20:16:55.358Z,14.95
2019-02-27T20:19:29.009Z,15.25
2019-02-27T20:21:59.997Z,14.50
2019-02-27T20:24:32.433Z,14.47
2019-02-27T20:27:04.550Z,14.45
2019-02-27T20:29:39.251Z,13.98
2019-02-27T20:32:09.128Z,13.83
2019-02-27T20:34:42.627Z,13.72
2019-02-27T20:37:13.484Z,12.68
2019-02-27T20:39:45.036Z,13.70
2019-02-27T20:42:16.494Z,13.25
2019-02-27T20:44:47.825Z,14.55
2019-02-27T20:47:21.909Z,11.12
2019-02-27T20:49:52.443Z,10.63
2019-02-27T20:52:23.680Z,9.38
2019-02-27T20:54:55.228Z,9.75
2019-02-27T20:57:26.929Z,10.03
2019-02-27T21:00:02.424Z,9.83
2019-02-27T21:02:33.381Z,10.45
2019-02-27T21:05:06.750Z,9.78
2019-02-27T21:07:38.067Z,10.78
2019-02-27T21:10:12.618Z,8.85
2019-02-27T21:12:53.466Z,8.00
2019-02-27T21:15:17.756Z,8.15
2019-02-27T21:17:49.093Z,7.28
2019-02-27T21:20:21.119Z,7.60
2019-02-27T21:22:52.931Z,6.70
2019-02-27T21:25:24.884Z,6.62
2019-02-27T21:27:56.784Z,6.60
2019-02-27T21:30:28.464Z,6.22
2019-02-27T21:33:00.183Z,5.80
2019-02-27T21:35:32.859Z,6.87
2019-02-27T21:38:04.451Z,7.42
2019-02-27T21:40:36.914Z,6.42
2019-02-27T21:43:09.318Z,5.95
2019-02-27T21:45:41.047Z,5.80
2019-02-27T21:48:12.491Z,5.08
2019-02-27T21:50:45.226Z,5.10
2019-02-27T21:53:16.626Z,6.15
2019-02-27T21:55:48.052Z,4.92
2019-02-27T21:58:20.561Z,5.03
2019-02-27T22:00:52.398Z,5.35
2019-02-27T22:03:24.043Z,5.47
2019-02-27T22:05:55.994Z,5.00
2019-02-27T22:08:27.947Z,5.55
2019-02-27T22:11:00.197Z,5.03
2019-02-27T22:13:32.361Z,5.87
2019-02-27T22:16:04.148Z,5.15
2019-02-27T22:18:35.696Z,6.10
2019-02-27T22:21:07.189Z,7.00
2019-02-27T22:23:38.722Z,5.92
2019-02-27T22:26:10.488Z,5.37
2019-02-27T22:28:43.179Z,5.45
2019-02-27T22:31:14.873Z,5.80
2019-02-27T22:33:46.263Z,5.37
2019-02-27T22:36:17.922Z,5.17
2019-02-27T22:38:49.490Z,5.15
2019-02-27T22:41:21.295Z,5.90
2019-02-27T22:43:53.207Z,5.20
2019-02-27T22:46:25.996Z,6.15
2019-02-27T22:48:59.965Z,5.55
2019-02-27T22:51:31.679Z,5.12
2019-02-27T22:54:03.332Z,5.80
2019-02-27T22:56:34.776Z,6.42
2019-02-27T22:59:06.297Z,6.20
2019-02-27T23:01:49.252Z,6.45
2019-02-27T23:04:18.200Z,6.55
2019-02-27T23:06:49.698Z,6.92
2019-02-27T23:09:25.640Z,7.40
2019-02-27T23:11:56.203Z,6.33
2019-02-27T23:14:27.713Z,6.97
2019-02-27T23:17:00.607Z,6.67
2019-02-27T23:19:33.721Z,6.70
2019-02-27T23:22:05.501Z,6.75
2019-02-27T23:24:36.719Z,6.37
2019-02-27T23:27:08.444Z,6.42
2019-02-27T23:29:40.639Z,6.33
2019-02-27T23:32:12.103Z,7.12
2019-02-27T23:34:43.705Z,6.95
2019-02-27T23:37:15.252Z,6.70
2019-02-27T23:39:46.962Z,6.35
2019-02-27T23:42:18.480Z,6.97
2019-02-27T23:44:50.190Z,6.08
2019-02-27T23:47:21.683Z,6.47
2019-02-27T23:49:53.118Z,6.50
2019-02-27T23:52:24.665Z,6.67
2019-02-27T23:54:56.220Z,6.78
2019-02-27T23:57:27.488Z,7.08
2019-02-27T23:59:59.087Z,6.20
